Time;durP1;ratioP1;P1;durP2;ratioP2;P2;SDS_P1;SDS_P2;PMS_P1;PMS_P2;Temp;Humidity;BMP_temperature;BMP_pressure;BME280_temperature;BME280_humidity;BME280_pressure;Samples;Min_cycle;Max_cycle;Signal;HPM_P1;HPM_P2
2023/05/15 00:01:44;;;;;;;2.50;2.10;;;;;;;12.02;79.53;96060.04;109187;1266;22508;-80
2023/05/15 00:04:17;;;;;;;3.20;2.20;;;;;;;12.02;79.67;96055.23;109194;1250;22589;-80
2023/05/15 00:06:49;;;;;;;2.40;2.20;;;;;;;12.02;79.93;96052.88;109181;1269;22549;-80
2023/05/15 00:09:20;;;;;;;3.10;2.00;;;;;;;11.99;80.16;96048.65;109185;1272;24210;-80
2023/05/15 00:11:52;;;;;;;1.70;1.30;;;;;;;11.99;80.11;96043.46;109139;1267;24629;-80
2023/05/15 00:14:24;;;;;;;2.40;1.70;;;;;;;11.98;80.00;96038.64;109141;1270;22539;-80
2023/05/15 00:16:58;;;;;;;1.90;1.70;;;;;;;11.98;80.21;96033.70;109153;1272;24190;-80
2023/05/15 00:19:31;;;;;;;2.40;1.90;;;;;;;11.97;80.37;96038.29;109153;1266;22591;-79
2023/05/15 00:22:02;;;;;;;3.10;2.20;;;;;;;11.99;80.64;96035.86;109170;1266;22524;-80
2023/05/15 00:24:33;;;;;;;2.70;2.20;;;;;;;11.96;81.36;96039.84;109134;1270;22482;-80
2023/05/15 00:27:05;;;;;;;3.40;2.10;;;;;;;11.88;81.27;96034.11;109161;1269;23198;-80
2023/05/15 00:29:36;;;;;;;2.50;1.90;;;;;;;11.85;81.54;96034.19;109180;1272;22511;-80
2023/05/15 00:32:07;;;;;;;4.50;2.10;;;;;;;11.85;81.67;96029.63;109132;1272;25495;-80
2023/05/15 00:34:39;;;;;;;1.70;1.60;;;;;;;11.84;81.80;96027.47;109129;1272;24180;-80
2023/05/15 00:37:13;;;;;;;3.00;2.30;;;;;;;11.88;81.87;96024.45;109138;1250;22521;-80
2023/05/15 00:39:46;;;;;;;2.80;2.10;;;;;;;11.89;81.97;96020.72;109136;1272;25455;-80
2023/05/15 00:42:18;;;;;;;3.10;2.70;;;;;;;11.89;82.16;96011.63;109144;1269;22486;-80
2023/05/15 00:44:52;;;;;;;3.30;2.40;;;;;;;11.85;82.34;95997.91;109145;1266;25281;-80
2023/05/15 00:47:24;;;;;;;2.40;1.80;;;;;;;11.81;82.85;96000.11;109142;1266;22985;-80
2023/05/15 00:49:55;;;;;;;2.20;2.00;;;;;;;11.72;83.11;95992.44;109164;1272;25231;-80
2023/05/15 00:52:28;;;;;;;2.30;1.80;;;;;;;11.69;83.38;95991.44;109086;1269;52092;-80
2023/05/15 00:55:00;;;;;;;2.20;1.60;;;;;;;11.67;83.69;95991.78;109192;1266;22518;-80
2023/05/15 00:57:33;;;;;;;1.50;1.40;;;;;;;11.70;83.94;95993.66;107993;1272;1511820;-80
2023/05/15 01:00:09;;;;;;;1.20;1.10;;;;;;;11.71;84.05;95990.83;109139;1266;23310;-80
2023/05/15 01:02:41;;;;;;;1.80;1.50;;;;;;;11.71;84.20;95996.61;109152;1267;23733;-80
2023/05/15 01:05:13;;;;;;;1.60;1.30;;;;;;;11.72;84.38;95992.87;109143;1272;22525;-80
2023/05/15 01:07:57;;;;;;;2.40;1.30;;;;;;;11.74;84.57;95993.20;109191;1266;22514;-80
2023/05/15 01:10:31;;;;;;;2.00;1.70;;;;;;;11.73;84.49;95999.09;109126;1269;22518;-80
2023/05/15 01:13:04;;;;;;;3.80;2.10;;;;;;;11.72;84.90;95999.11;109084;1269;22607;-80
2023/05/15 01:15:37;;;;;;;2.20;1.90;;;;;;;11.71;84.80;96000.23;108985;1267;22493;-80
2023/05/15 01:18:09;;;;;;;2.80;2.50;;;;;;;11.70;84.80;95991.01;109002;1265;22669;-80
2023/05/15 01:21:00;;;;;;;2.70;2.20;;;;;;;11.67;85.27;95993.40;109083;1272;22684;-80
2023/05/15 01:23:41;;;;;;;3.80;2.20;;;;;;;11.64;85.48;95989.00;109059;1272;22530;-80
2023/05/15 01:26:54;;;;;;;2.30;1.70;;;;;;;11.66;85.75;95994.89;109014;1265;22648;-80
2023/05/15 01:29:32;;;;;;;2.80;2.20;;;;;;;11.61;85.56;95999.05;108977;1272;22742;-80
2023/05/15 01:32:06;;;;;;;2.60;2.10;;;;;;;11.51;85.57;95994.64;109147;1272;24277;-80
2023/05/15 01:34:44;;;;;;;3.30;1.90;;;;;;;11.50;86.14;95990.73;109196;1266;25108;-80
2023/05/15 01:37:22;;;;;;;2.50;1.90;;;;;;;11.48;86.06;95985.69;109168;1272;24207;-80
2023/05/15 01:39:57;;;;;;;3.30;2.00;;;;;;;11.45;86.47;95976.05;109200;1266;22511;-80
2023/05/15 01:42:36;;;;;;;2.30;1.90;;;;;;;11.47;87.08;95978.28;109180;1272;23808;-80
2023/05/15 01:45:11;;;;;;;3.60;1.90;;;;;;;11.47;87.22;95977.50;109167;1266;25253;-80
2023/05/15 01:47:46;;;;;;;3.30;1.80;;;;;;;11.44;87.31;95974.04;109159;1272;24222;-80
2023/05/15 01:50:19;;;;;;;3.40;2.00;;;;;;;11.47;87.62;95978.50;109209;1266;22559;-80
2023/05/15 01:52:54;;;;;;;3.70;2.20;;;;;;;11.49;87.67;95972.80;109177;1272;22481;-79
2023/05/15 01:55:27;;;;;;;3.30;2.00;;;;;;;11.46;87.52;95970.55;109217;1266;22530;-80
2023/05/15 01:58:01;;;;;;;2.50;1.90;;;;;;;11.41;87.88;95966.22;109175;1272;22549;-80
2023/05/15 02:00:37;;;;;;;3.00;2.00;;;;;;;11.40;88.07;95959.48;109209;1269;22515;-79
2023/05/15 02:03:08;;;;;;;1.80;1.70;;;;;;;11.38;88.92;95958.52;109173;1266;23399;-79
2023/05/15 02:05:45;;;;;;;2.50;1.80;;;;;;;11.30;88.79;95950.63;109232;1250;22721;-80
2023/05/15 02:08:17;;;;;;;2.20;2.00;;;;;;;11.33;89.04;95943.24;109178;1266;22523;-80
2023/05/15 02:10:49;;;;;;;2.10;1.80;;;;;;;11.37;89.08;95934.87;109202;1266;23817;-80
2023/05/15 02:13:22;;;;;;;5.20;2.30;;;;;;;11.39;89.08;95931.48;109179;1272;23832;-79
2023/05/15 02:15:53;;;;;;;1.60;1.50;;;;;;;11.40;89.17;95924.04;109172;1272;25486;-79
2023/05/15 02:18:24;;;;;;;2.10;1.20;;;;;;;11.40;89.38;95916.29;109172;1272;23201;-79
2023/05/15 02:20:55;;;;;;;1.20;1.10;;;;;;;11.41;89.54;95913.52;109168;1272;22505;-80
2023/05/15 02:23:26;;;;;;;1.70;0.90;;;;;;;11.42;89.66;95909.40;109160;1272;22617;-80
2023/05/15 02:26:08;;;;;;;1.60;0.90;;;;;;;11.44;89.84;95911.63;109153;1266;22521;-80
2023/05/15 02:28:48;;;;;;;1.10;0.80;;;;;;;11.47;89.89;95914.17;109196;1272;23344;-80
2023/05/15 02:31:27;;;;;;;0.70;0.70;;;;;;;11.49;89.87;95907.77;109164;1272;22511;-80
2023/05/15 02:34:09;;;;;;;1.40;0.90;;;;;;;11.52;89.95;95909.27;109194;1272;22611;-80
2023/05/15 02:36:46;;;;;;;1.40;1.00;;;;;;;11.52;90.01;95906.55;109207;1269;22507;-80
2023/05/15 02:39:18;;;;;;;1.00;0.70;;;;;;;11.53;90.08;95900.31;109174;1272;22541;-80
2023/05/15 02:41:51;;;;;;;2.50;0.80;;;;;;;11.54;90.13;95896.52;109170;1269;22541;-80
2023/05/15 02:44:25;;;;;;;0.80;0.70;;;;;;;11.55;90.14;95893.60;109173;1266;24209;-80
2023/05/15 02:46:57;;;;;;;1.10;0.80;;;;;;;11.53;90.21;95892.19;109162;1272;22577;-80
2023/05/15 02:49:28;;;;;;;0.70;0.60;;;;;;;11.52;90.23;95894.06;109188;1272;25327;-79
2023/05/15 02:52:03;;;;;;;1.60;0.80;;;;;;;11.53;90.37;95893.66;109142;1266;22517;-79
2023/05/15 02:54:37;;;;;;;1.50;0.80;;;;;;;11.55;90.48;95894.13;109174;1266;22983;-80
2023/05/15 02:57:10;;;;;;;0.70;0.70;;;;;;;11.58;90.47;95895.37;109172;1269;22594;-80
2023/05/15 02:59:46;;;;;;;0.50;0.50;;;;;;;11.62;90.42;95895.16;109195;1272;22638;-80
2023/05/15 03:02:17;;;;;;;0.90;0.80;;;;;;;11.63;90.37;95894.30;109152;1272;22610;-80
2023/05/15 03:04:48;;;;;;;1.60;0.50;;;;;;;11.63;90.51;95890.58;109156;1272;22577;-80
2023/05/15 03:07:19;;;;;;;0.70;0.70;;;;;;;11.61;90.53;95892.64;109186;1272;22626;-80
2023/05/15 03:09:52;;;;;;;0.90;0.80;;;;;;;11.59;90.66;95895.88;109173;1272;23870;-80
2023/05/15 03:12:25;;;;;;;1.10;0.70;;;;;;;11.61;90.74;95894.73;109142;1272;22520;-80
2023/05/15 03:14:56;;;;;;;0.70;0.70;;;;;;;11.62;90.81;95888.80;109156;1272;22521;-80
2023/05/15 03:17:27;;;;;;;1.70;0.80;;;;;;;11.61;90.85;95894.07;109130;1273;23760;-80
2023/05/15 03:19:59;;;;;;;1.50;0.80;;;;;;;11.56;90.56;95894.14;109174;1272;22525;-80
2023/05/15 03:22:32;;;;;;;1.90;0.80;;;;;;;11.47;90.84;95885.88;109156;1265;22521;-80
2023/05/15 03:25:03;;;;;;;1.20;0.80;;;;;;;11.46;91.27;95885.72;109151;1265;23875;-80
2023/05/15 03:27:34;;;;;;;1.20;0.80;;;;;;;11.48;91.40;95885.10;109184;1266;22522;-80
2023/05/15 03:30:06;;;;;;;1.00;0.70;;;;;;;11.49;91.45;95881.83;109182;1266;22579;-80
2023/05/15 03:32:39;;;;;;;0.80;0.80;;;;;;;11.51;91.49;95880.24;109161;1272;24407;-80
2023/05/15 03:35:11;;;;;;;0.70;0.70;;;;;;;11.55;91.43;95874.58;109172;1272;25407;-80
2023/05/15 03:37:49;;;;;;;0.70;0.70;;;;;;;11.56;91.18;95862.63;109114;1268;23818;-80
2023/05/15 03:40:20;;;;;;;3.00;1.00;;;;;;;11.58;91.32;95863.27;109172;1273;22529;-80
2023/05/15 03:42:52;;;;;;;1.50;1.20;;;;;;;11.57;91.52;95857.02;109163;1269;22481;-80
2023/05/15 03:45:25;;;;;;;1.90;0.70;;;;;;;11.59;91.65;95852.09;109142;1272;22593;-80
2023/05/15 03:47:58;;;;;;;0.90;0.90;;;;;;;11.57;91.72;95847.55;109200;1272;22550;-80
2023/05/15 03:50:32;;;;;;;0.60;0.60;;;;;;;11.59;91.78;95847.68;109192;1272;22511;-80
2023/05/15 03:53:06;;;;;;;0.80;0.60;;;;;;;11.60;91.96;95844.34;109210;1269;24297;-79
2023/05/15 03:55:37;;;;;;;1.40;1.10;;;;;;;11.62;92.02;95840.23;109128;1272;22518;-80
2023/05/15 03:58:08;;;;;;;1.30;1.20;;;;;;;11.65;91.99;95839.02;109183;1266;22681;-80
2023/05/15 04:00:39;;;;;;;1.80;1.40;;;;;;;11.68;91.99;95839.77;109173;1272;25269;-80
2023/05/15 04:03:10;;;;;;;2.50;1.50;;;;;;;11.72;92.09;95832.80;109176;1266;25397;-80
2023/05/15 04:05:41;;;;;;;2.20;1.50;;;;;;;11.77;92.23;95831.14;109151;1273;22537;-80
2023/05/15 04:08:12;;;;;;;3.10;2.00;;;;;;;11.81;92.21;95831.05;109187;1259;22579;-80
2023/05/15 04:10:43;;;;;;;3.10;2.00;;;;;;;11.85;92.34;95829.63;109193;1272;22507;-80
2023/05/15 04:13:14;;;;;;;2.80;2.30;;;;;;;11.92;92.29;95827.18;109129;1250;22574;-80
2023/05/15 04:15:45;;;;;;;3.30;2.00;;;;;;;11.98;92.28;95832.55;109152;1272;23924;-80
2023/05/15 04:18:16;;;;;;;2.80;2.40;;;;;;;12.01;92.18;95823.80;109210;1266;22540;-80
2023/05/15 04:20:47;;;;;;;2.60;2.40;;;;;;;12.12;92.46;95817.67;109153;1266;24197;-80
2023/05/15 04:23:18;;;;;;;2.20;2.00;;;;;;;12.21;92.29;95811.14;109104;1272;24373;-80
2023/05/15 04:25:52;;;;;;;2.50;1.80;;;;;;;12.27;92.14;95804.73;109208;1272;22534;-80
2023/05/15 04:28:23;;;;;;;3.00;2.10;;;;;;;12.32;91.98;95801.33;109163;1272;22757;-80
2023/05/15 04:30:54;;;;;;;1.50;1.40;;;;;;;12.39;91.84;95798.00;109124;1273;22475;-80
2023/05/15 04:33:24;;;;;;;3.00;1.60;;;;;;;12.41;91.64;95793.58;109142;1266;22573;-80
2023/05/15 04:35:56;;;;;;;1.70;1.50;;;;;;;12.42;91.39;95786.70;109135;1272;22592;-80
2023/05/15 04:38:29;;;;;;;1.50;1.40;;;;;;;12.45;91.34;95790.38;109139;1266;22927;-80
2023/05/15 04:41:00;;;;;;;1.70;1.60;;;;;;;12.47;91.26;95787.60;109221;1272;22514;-80
2023/05/15 04:43:31;;;;;;;1.60;1.30;;;;;;;12.48;91.19;95786.66;109146;1272;22556;-80
2023/05/15 04:46:02;;;;;;;2.20;1.70;;;;;;;12.50;90.94;95787.48;109185;1266;22527;-80
2023/05/15 04:48:35;;;;;;;2.90;1.40;;;;;;;12.58;91.20;95793.55;109096;1273;23773;-80
2023/05/15 04:51:08;;;;;;;1.60;1.50;;;;;;;12.61;90.99;95793.69;109181;1265;22479;-80
2023/05/15 04:53:39;;;;;;;2.00;1.60;;;;;;;12.57;90.74;95801.80;109144;1272;22539;-80
2023/05/15 04:56:11;;;;;;;1.90;1.60;;;;;;;12.55;90.70;95794.91;109172;1266;22507;-80
2023/05/15 04:58:42;;;;;;;1.80;1.50;;;;;;;12.47;90.41;95798.45;109151;1266;24214;-80
2023/05/15 05:01:13;;;;;;;1.40;1.30;;;;;;;12.44;90.63;95796.14;109186;1272;25435;-80
2023/05/15 05:03:49;;;;;;;1.20;1.10;;;;;;;12.50;91.21;95780.44;109162;1272;22539;-80
2023/05/15 05:06:20;;;;;;;0.90;0.90;;;;;;;12.54;91.13;95771.86;109133;1272;22550;-80
2023/05/15 05:08:51;;;;;;;1.60;1.30;;;;;;;12.54;90.81;95782.49;109139;1266;22562;-80
2023/05/15 05:11:25;;;;;;;1.20;0.80;;;;;;;12.56;90.79;95781.56;109284;1269;22569;-80
2023/05/15 05:13:56;;;;;;;2.20;1.00;;;;;;;12.52;89.94;95784.33;109193;1272;22681;-80
2023/05/15 05:16:26;;;;;;;1.60;0.70;;;;;;;12.46;91.93;95792.58;109197;1273;22596;-80
2023/05/15 05:18:57;;;;;;;0.40;0.40;;;;;;;12.35;91.03;95800.33;109214;1272;23292;-80
2023/05/15 05:21:28;;;;;;;0.60;0.60;;;;;;;12.30;90.67;95801.52;109157;1272;22485;-80
2023/05/15 05:23:59;;;;;;;0.60;0.60;;;;;;;12.27;91.02;95805.58;109189;1267;22533;-80
2023/05/15 05:26:30;;;;;;;1.40;0.80;;;;;;;12.26;89.91;95816.70;109142;1272;22507;-80
2023/05/15 05:29:04;;;;;;;0.70;0.70;;;;;;;12.28;90.56;95819.59;109191;1272;23991;-80
2023/05/15 05:31:35;;;;;;;1.20;0.70;;;;;;;12.26;90.28;95814.48;109153;1273;22553;-80
2023/05/15 05:34:09;;;;;;;2.60;0.90;;;;;;;12.28;89.53;95812.98;109158;1269;25291;-80
2023/05/15 05:36:40;;;;;;;0.60;0.60;;;;;;;12.30;89.48;95807.86;109147;1273;22523;-80
2023/05/15 05:39:11;;;;;;;2.20;0.80;;;;;;;12.31;89.65;95798.23;109168;1273;24237;-80
2023/05/15 05:41:42;;;;;;;1.00;0.90;;;;;;;12.33;89.91;95802.67;109102;1272;23710;-80
2023/05/15 05:44:13;;;;;;;1.50;1.20;;;;;;;12.35;90.11;95809.96;109181;1272;24468;-80
2023/05/15 05:46:44;;;;;;;2.10;0.90;;;;;;;12.34;90.11;95809.23;109181;1273;22508;-80
2023/05/15 05:49:15;;;;;;;1.10;0.60;;;;;;;12.34;90.24;95802.95;109190;1272;22576;-80
2023/05/15 05:51:46;;;;;;;1.60;1.10;;;;;;;12.37;90.29;95796.83;109201;1272;22555;-80
2023/05/15 05:54:18;;;;;;;3.00;1.10;;;;;;;12.40;90.44;95784.53;109179;1272;24199;-80
2023/05/15 05:56:49;;;;;;;1.80;0.90;;;;;;;12.44;90.69;95771.06;109271;1269;25310;-80
2023/05/15 05:59:20;;;;;;;1.90;0.90;;;;;;;12.49;90.76;95763.89;109209;1272;23839;-80
2023/05/15 06:01:51;;;;;;;1.60;1.00;;;;;;;12.54;90.84;95752.55;109152;1273;22527;-80
2023/05/15 06:04:22;;;;;;;2.60;0.90;;;;;;;12.58;90.79;95754.29;109116;1272;25413;-81
2023/05/15 06:06:56;;;;;;;1.10;1.00;;;;;;;12.52;90.49;95756.91;109178;1265;22529;-80
2023/05/15 06:09:31;;;;;;;1.10;1.00;;;;;;;12.48;90.76;95753.98;109120;1272;25284;-81
2023/05/15 06:12:07;;;;;;;1.50;1.10;;;;;;;12.53;91.19;95754.73;109190;1266;22619;-80
2023/05/15 06:14:38;;;;;;;2.50;1.40;;;;;;;12.54;91.36;95750.41;109168;1266;24340;-80
2023/05/15 06:17:11;;;;;;;1.70;1.30;;;;;;;12.56;91.51;95756.79;109162;1267;24188;-81
2023/05/15 06:19:42;;;;;;;1.60;1.20;;;;;;;12.62;91.64;95754.91;109137;1273;25272;-81
2023/05/15 06:22:13;;;;;;;2.70;1.50;;;;;;;12.70;92.16;95741.46;109079;1266;25668;-81
2023/05/15 06:24:46;;;;;;;1.80;1.20;;;;;;;12.80;92.43;95739.68;109157;1273;23339;-81
2023/05/15 06:27:19;;;;;;;1.50;1.20;;;;;;;12.87;92.33;95736.06;109162;1269;22516;-81
2023/05/15 06:29:52;;;;;;;2.90;1.30;;;;;;;12.94;92.43;95733.98;109132;1266;24165;-81
2023/05/15 06:32:23;;;;;;;1.80;1.00;;;;;;;13.02;92.47;95732.01;109162;1265;22524;-81
2023/05/15 06:34:59;;;;;;;2.00;1.80;;;;;;;13.11;92.44;95735.41;109197;1273;22590;-80
2023/05/15 06:37:30;;;;;;;2.20;1.70;;;;;;;13.22;92.56;95736.35;109195;1266;22556;-81
2023/05/15 06:40:02;;;;;;;1.50;1.40;;;;;;;13.32;92.30;95736.55;109194;1271;24158;-81
2023/05/15 06:42:33;;;;;;;2.20;1.50;;;;;;;13.43;92.28;95730.63;109107;1273;22461;-81
2023/05/15 06:45:04;;;;;;;1.70;1.30;;;;;;;13.41;91.82;95733.12;109130;1269;22617;-81
2023/05/15 06:47:35;;;;;;;2.50;1.60;;;;;;;13.26;91.91;95729.91;109162;1272;25008;-80
2023/05/15 06:50:09;;;;;;;1.30;1.20;;;;;;;13.13;93.15;95727.96;109166;1272;22646;-80
2023/05/15 06:52:40;;;;;;;1.90;1.10;;;;;;;12.96;93.45;95722.15;109200;1266;22565;-80
2023/05/15 06:55:11;;;;;;;2.40;1.50;;;;;;;12.83;94.08;95715.19;109202;1269;22658;-80
2023/05/15 06:57:42;;;;;;;2.40;1.60;;;;;;;12.77;94.05;95710.39;109171;1272;22631;-80
2023/05/15 07:00:20;;;;;;;1.90;1.70;;;;;;;12.91;94.17;95709.08;109133;1272;25248;-80
2023/05/15 07:02:54;;;;;;;2.70;1.80;;;;;;;13.10;94.48;95711.71;109211;1273;22534;-81
2023/05/15 07:05:24;;;;;;;2.00;1.80;;;;;;;13.24;94.23;95710.69;109149;1269;23988;-81
2023/05/15 07:07:56;;;;;;;3.70;1.80;;;;;;;13.39;94.38;95711.90;109199;1269;25411;-80
2023/05/15 07:10:29;;;;;;;2.30;1.50;;;;;;;13.46;93.79;95710.27;109144;1272;22526;-81
2023/05/15 07:13:00;;;;;;;1.30;1.20;;;;;;;13.51;92.98;95717.81;109125;1266;24165;-81
2023/05/15 07:15:32;;;;;;;1.50;1.30;;;;;;;13.58;92.49;95721.95;109126;1266;22564;-81
2023/05/15 07:18:03;;;;;;;1.50;1.40;;;;;;;13.67;92.22;95719.58;109223;1262;25248;-81
2023/05/15 07:20:33;;;;;;;1.70;1.20;;;;;;;13.84;92.60;95718.13;109212;1266;25317;-81
2023/05/15 07:23:05;;;;;;;1.60;1.10;;;;;;;14.09;92.73;95727.32;109194;1266;25268;-80
2023/05/15 07:25:36;;;;;;;2.20;0.90;;;;;;;14.22;91.87;95733.80;109241;1272;22687;-80
2023/05/15 07:28:08;;;;;;;1.20;1.10;;;;;;;14.15;90.27;95735.05;109191;1269;22561;-80
2023/05/15 07:30:39;;;;;;;1.80;1.30;;;;;;;14.11;90.15;95737.88;109237;1272;23847;-80
2023/05/15 07:33:10;;;;;;;2.10;1.30;;;;;;;14.21;90.68;95734.21;109193;1269;25418;-80
2023/05/15 07:35:41;;;;;;;1.40;1.10;;;;;;;14.37;90.90;95733.59;109201;1272;22531;-80
2023/05/15 07:38:13;;;;;;;1.50;1.30;;;;;;;14.54;90.25;95734.73;109165;1269;22638;-80
2023/05/15 07:40:44;;;;;;;2.90;1.20;;;;;;;14.68;89.47;95740.34;109168;1272;22570;-81
2023/05/15 07:43:15;;;;;;;2.10;1.00;;;;;;;14.98;89.84;95740.52;109187;1269;22680;-80
2023/05/15 07:45:47;;;;;;;1.10;0.90;;;;;;;15.46;89.61;95742.80;109223;1273;22546;-80
2023/05/15 07:48:24;;;;;;;1.20;1.00;;;;;;;15.89;88.94;95741.73;109222;1273;22599;-81
2023/05/15 07:50:58;;;;;;;1.10;0.70;;;;;;;16.41;88.55;95734.16;109225;1272;22518;-81
2023/05/15 07:53:32;;;;;;;1.10;0.90;;;;;;;17.41;88.19;95734.16;109213;1269;22498;-81
2023/05/15 07:56:04;;;;;;;0.50;0.50;;;;;;;19.03;80.21;95735.23;109217;1272;24170;-81
2023/05/15 07:58:39;;;;;;;1.60;0.80;;;;;;;18.83;76.45;95739.04;109203;1273;22548;-81
2023/05/15 08:01:10;;;;;;;1.30;0.80;;;;;;;18.36;78.00;95744.22;109241;1265;22543;-81
2023/05/15 08:03:41;;;;;;;0.80;0.60;;;;;;;18.01;76.33;95753.89;109134;1255;23409;-78
2023/05/15 08:06:12;;;;;;;1.70;0.90;;;;;;;17.36;74.31;95759.23;109114;1274;22522;-81
2023/05/15 08:08:44;;;;;;;1.00;0.80;;;;;;;16.81;76.24;95757.48;109134;1273;22552;-80
2023/05/15 08:11:20;;;;;;;1.70;0.90;;;;;;;16.70;77.38;95747.13;109101;1272;23660;-80
2023/05/15 08:13:51;;;;;;;1.40;0.80;;;;;;;16.77;78.25;95742.52;109104;1274;22535;-80
2023/05/15 08:16:22;;;;;;;2.10;0.70;;;;;;;16.81;78.13;95746.98;109122;1274;22569;-80
2023/05/15 08:18:57;;;;;;;2.20;0.90;;;;;;;16.73;77.84;95737.66;109110;1267;22542;-80
2023/05/15 08:21:29;;;;;;;1.80;0.80;;;;;;;16.72;78.20;95736.50;109086;1267;22515;-80
2023/05/15 08:24:01;;;;;;;2.30;0.80;;;;;;;16.83;78.41;95742.09;109130;1271;22949;-80
2023/05/15 08:26:33;;;;;;;2.30;0.60;;;;;;;16.88;77.93;95743.23;109147;1272;25905;-80
2023/05/15 08:29:06;;;;;;;0.40;0.40;;;;;;;16.84;76.94;95742.73;109206;1272;22599;-81
2023/05/15 08:31:41;;;;;;;0.50;0.40;;;;;;;16.73;76.52;95743.09;107272;1272;2562101;-81
2023/05/15 08:34:12;;;;;;;1.90;0.50;;;;;;;16.62;76.16;95751.70;109214;1269;22513;-81
2023/05/15 08:36:44;;;;;;;0.40;0.40;;;;;;;16.54;75.84;95752.54;109198;1272;24214;-81
2023/05/15 08:39:19;;;;;;;0.70;0.50;;;;;;;16.57;76.32;95756.42;109224;1266;23301;-81
2023/05/15 08:41:56;;;;;;;0.70;0.40;;;;;;;16.65;76.10;95752.02;109303;1265;23153;-81
2023/05/15 08:44:27;;;;;;;0.60;0.50;;;;;;;16.81;76.17;95749.21;109165;1272;23324;-80
2023/05/15 08:46:59;;;;;;;0.80;0.30;;;;;;;16.88;74.53;95754.45;109205;1269;22570;-80
2023/05/15 08:49:37;;;;;;;2.90;0.80;;;;;;;16.92;74.35;95757.20;109298;1267;24605;-81
2023/05/15 08:52:09;;;;;;;0.80;0.50;;;;;;;17.02;74.45;95756.63;109254;1272;22780;-81
2023/05/15 08:54:42;;;;;;;1.40;0.70;;;;;;;16.83;73.81;95759.77;109218;1266;24776;-81
2023/05/15 08:57:19;;;;;;;2.70;0.70;;;;;;;16.59;74.13;95769.04;109157;1272;22516;-81
2023/05/15 08:59:51;;;;;;;1.60;0.80;;;;;;;16.56;74.26;95776.05;109249;1266;22552;-81
2023/05/15 09:02:24;;;;;;;1.00;0.80;;;;;;;16.62;74.70;95780.38;109146;1272;22740;-81
2023/05/15 09:04:56;;;;;;;2.00;0.50;;;;;;;16.86;75.03;95776.37;109226;1272;23971;-81
2023/05/15 09:07:29;;;;;;;1.50;0.70;;;;;;;17.28;75.04;95773.58;109182;1269;22541;-81
2023/05/15 09:10:12;;;;;;;1.20;0.60;;;;;;;17.47;73.67;95776.31;109196;1272;22624;-81
2023/05/15 09:12:46;;;;;;;1.00;0.80;;;;;;;17.49;72.76;95771.25;109172;1272;22515;-81
2023/05/15 09:15:23;;;;;;;0.80;0.60;;;;;;;17.63;72.48;95770.98;109188;1269;22553;-81
2023/05/15 09:17:54;;;;;;;1.10;0.70;;;;;;;17.86;72.49;95769.45;109211;1269;22473;-81
2023/05/15 09:20:33;;;;;;;1.20;0.70;;;;;;;18.02;71.47;95760.13;109180;1272;22924;-81
2023/05/15 09:23:05;;;;;;;1.40;0.60;;;;;;;17.88;71.58;95763.30;109196;1265;24181;-81
2023/05/15 09:25:45;;;;;;;0.40;0.40;;;;;;;18.08;71.43;95769.38;109191;1271;22486;-80
2023/05/15 09:28:29;;;;;;;1.70;0.50;;;;;;;18.03;70.65;95769.64;109196;1272;22574;-80
2023/05/15 09:31:04;;;;;;;1.20;0.70;;;;;;;17.73;69.57;95770.73;109261;1266;22645;-80
2023/05/15 09:33:41;;;;;;;0.50;0.50;;;;;;;17.43;69.32;95775.67;109215;1269;22511;-81
2023/05/15 09:36:21;;;;;;;0.70;0.70;;;;;;;17.30;69.07;95774.31;109201;1272;26010;-81
2023/05/15 09:38:57;;;;;;;;;;;;;;;17.06;69.05;95784.23;109227;1272;22577;-81
2023/05/15 09:41:29;;;;;;;1.30;0.60;;;;;;;16.94;69.18;95781.17;109199;1272;24241;-81
2023/05/15 09:44:00;;;;;;;1.40;0.80;;;;;;;16.84;69.82;95786.33;109165;1267;25237;-81
2023/05/15 09:46:34;;;;;;;1.70;0.70;;;;;;;16.84;70.03;95785.50;109260;1272;24234;-81
2023/05/15 09:49:05;;;;;;;1.60;0.80;;;;;;;16.82;69.82;95777.33;109146;1272;22574;-81
2023/05/15 09:51:36;;;;;;;1.00;0.60;;;;;;;16.86;70.42;95781.51;109194;1272;22609;-81
2023/05/15 09:54:14;;;;;;;0.80;0.80;;;;;;;16.96;70.01;95787.04;109316;1272;22459;-81
2023/05/15 09:56:46;;;;;;;1.70;0.80;;;;;;;16.93;70.21;95793.86;109221;1269;22469;-81
2023/05/15 09:59:21;;;;;;;1.00;0.70;;;;;;;17.13;69.85;95786.03;109146;1272;24470;-81
2023/05/15 10:01:52;;;;;;;1.10;0.80;;;;;;;17.32;69.33;95764.95;109209;1272;23118;-84
2023/05/15 10:04:23;;;;;;;1.40;0.60;;;;;;;17.49;68.96;95768.70;109229;1272;22468;-81
2023/05/15 10:06:54;;;;;;;2.00;0.70;;;;;;;17.54;68.25;95770.97;109207;1271;24180;-81
2023/05/15 10:09:31;;;;;;;0.50;0.50;;;;;;;17.54;67.85;95770.05;109196;1250;22569;-81
2023/05/15 10:12:02;;;;;;;0.70;0.50;;;;;;;17.46;67.36;95767.79;109152;1266;22529;-82
2023/05/15 10:14:33;;;;;;;1.30;0.70;;;;;;;17.38;67.63;95771.78;109179;1272;25072;-82
2023/05/15 10:17:05;;;;;;;1.40;0.80;;;;;;;17.42;67.37;95785.34;109162;1272;22615;-81
2023/05/15 10:19:36;;;;;;;1.80;1.00;;;;;;;17.39;67.00;95787.48;109227;1272;22473;-82
2023/05/15 10:22:10;;;;;;;1.20;1.00;;;;;;;17.45;67.21;95788.19;109199;1266;22569;-81
2023/05/15 10:24:43;;;;;;;1.10;0.70;;;;;;;17.46;67.07;95791.98;109179;1272;22557;-81
2023/05/15 10:27:16;;;;;;;0.90;0.80;;;;;;;17.27;66.66;95789.92;109248;1269;24181;-82
2023/05/15 10:29:48;;;;;;;1.40;1.10;;;;;;;17.13;67.08;95787.31;109159;1250;22476;-82
2023/05/15 10:32:20;;;;;;;1.80;0.80;;;;;;;17.14;67.73;95789.26;109181;1273;22560;-81
2023/05/15 10:34:52;;;;;;;1.90;0.80;;;;;;;17.15;67.67;95794.73;109220;1272;23034;-82
2023/05/15 10:37:23;;;;;;;1.20;0.70;;;;;;;16.97;67.80;95798.86;109185;1272;22553;-81
2023/05/15 10:39:55;;;;;;;1.90;0.80;;;;;;;16.79;67.92;95802.00;109197;1273;22604;-82
2023/05/15 10:42:29;;;;;;;0.90;0.70;;;;;;;16.69;68.02;95804.15;109192;1272;22576;-82
2023/05/15 10:45:01;;;;;;;1.30;0.70;;;;;;;16.70;68.48;95807.02;109180;1273;22519;-81
2023/05/15 10:47:33;;;;;;;1.90;0.70;;;;;;;16.65;68.44;95814.20;109210;1272;22525;-82
2023/05/15 10:50:06;;;;;;;2.50;1.10;;;;;;;16.53;68.79;95817.41;109173;1266;22554;-82
2023/05/15 10:52:37;;;;;;;0.90;0.80;;;;;;;16.44;69.29;95820.70;109146;1273;22507;-82
2023/05/15 10:55:16;;;;;;;1.50;1.00;;;;;;;16.36;69.38;95817.20;109212;1273;23869;-82
2023/05/15 10:57:49;;;;;;;2.70;1.20;;;;;;;16.36;69.96;95815.50;109183;1250;23709;-82
2023/05/15 11:00:31;;;;;;;0.80;0.70;;;;;;;16.34;69.90;95814.66;109196;1268;22647;-82
2023/05/15 11:03:04;;;;;;;3.40;0.80;;;;;;;16.27;69.90;95813.92;109174;1265;24203;-82
2023/05/15 11:06:08;;;;;;;1.00;0.70;;;;;;;16.29;70.52;95814.66;109230;1272;22600;-82
2023/05/15 11:08:40;;;;;;;0.80;0.70;;;;;;;16.31;70.57;95807.85;109201;1272;22516;-81
2023/05/15 11:11:48;;;;;;;0.80;0.50;;;;;;;16.38;71.07;95813.66;109196;1269;23821;-82
2023/05/15 11:14:19;;;;;;;1.40;1.00;;;;;;;16.35;70.74;95815.58;109182;1269;22473;-82
2023/05/15 11:17:02;;;;;;;3.30;0.90;;;;;;;16.36;71.01;95819.02;109144;1272;22591;-82
2023/05/15 11:19:57;;;;;;;1.80;1.10;;;;;;;16.39;70.90;95821.77;109276;1269;22830;-82
2023/05/15 11:22:34;;;;;;;1.10;0.70;;;;;;;16.38;70.54;95820.06;109143;1269;22497;-82
2023/05/15 11:25:08;;;;;;;0.90;0.50;;;;;;;16.40;71.04;95825.26;109242;1251;22551;-82
2023/05/15 11:27:43;;;;;;;3.60;0.90;;;;;;;16.44;71.54;95826.80;109187;1269;23807;-82
2023/05/15 11:30:16;;;;;;;1.40;0.60;;;;;;;16.41;71.96;95815.35;109242;1266;22625;-82
2023/05/15 11:32:56;;;;;;;1.90;0.60;;;;;;;16.37;71.85;95817.52;109177;1273;22474;-82
2023/05/15 11:35:29;;;;;;;1.30;0.80;;;;;;;16.35;70.94;95820.07;109206;1272;23597;-82
2023/05/15 11:38:02;;;;;;;1.70;0.50;;;;;;;16.41;70.72;95820.52;109155;1272;22582;-81
2023/05/15 11:40:45;;;;;;;0.50;0.50;;;;;;;16.31;70.53;95820.39;109254;1272;25268;-80
2023/05/15 11:43:23;;;;;;;2.50;1.00;;;;;;;16.28;70.96;95817.15;109177;1272;22518;-81
2023/05/15 11:45:57;;;;;;;1.70;0.60;;;;;;;16.39;71.81;95822.39;109244;1269;22803;-81
2023/05/15 11:48:33;;;;;;;0.80;0.50;;;;;;;16.52;71.60;95820.89;109183;1272;24181;-81
2023/05/15 11:51:05;;;;;;;0.40;0.40;;;;;;;16.65;71.63;95815.71;109239;1272;22530;-81
2023/05/15 11:53:38;;;;;;;1.00;0.50;;;;;;;16.88;71.47;95800.98;109194;1272;22519;-81